Terminal Aerodrome Forecast
Issued by NWS Hastings, NE

Home | Current Version | Previous Version | Text Only | Print | Product List | Glossary On
Versions: 1 2 3 4 5 6 7 8 9 10 11 12 13 14 15 16
000
FTUS43 KGID 292338
TAFGRI
TAF
KGRI 292338Z 3000/3024 15004KT P6SM VCTS SCT025CB BKN050
     FM301100 00000KT P6SM VCTS OVC050CB
     FM301700 06005KT P6SM VCTS OVC025CB
     FM301800 07005KT P6SM BKN025
     FM302100 09006KT P6SM BKN015=

USA.gov is the U.S. government's official web portal to all federal, state and local government web resources and services.